createdAt,value
2018-06-18T00:01:24.201Z,5.33
2018-06-18T00:03:52.399Z,4.33
2018-06-18T00:06:20.596Z,5.97
2018-06-18T00:08:48.974Z,4.93
2018-06-18T00:11:17.200Z,5.97
2018-06-18T00:13:45.420Z,3.77
2018-06-18T00:16:13.649Z,7.57
2018-06-18T00:18:41.855Z,6.30
2018-06-18T00:21:10.046Z,6.17
2018-06-18T00:23:38.223Z,3.70
2018-06-18T00:26:06.428Z,5.37
2018-06-18T00:28:34.636Z,4.77
2018-06-18T00:31:02.852Z,7.00
2018-06-18T00:33:31.076Z,4.47
2018-06-18T00:35:59.327Z,5.20
2018-06-18T00:38:27.516Z,5.67
2018-06-18T00:40:55.707Z,7.17
2018-06-18T00:43:23.933Z,4.37
2018-06-18T00:45:52.128Z,5.63
2018-06-18T00:48:20.336Z,6.50
2018-06-18T00:50:48.631Z,4.10
2018-06-18T00:53:16.835Z,3.87
2018-06-18T00:55:56.353Z,5.93
2018-06-18T00:58:24.580Z,5.17
2018-06-18T01:00:52.994Z,5.47
2018-06-18T01:03:21.188Z,5.13
2018-06-18T01:05:49.392Z,4.30
2018-06-18T01:08:17.663Z,4.07
2018-06-18T01:10:45.824Z,8.30
2018-06-18T01:13:14.016Z,4.37
2018-06-18T01:15:42.226Z,3.97
2018-06-18T01:18:10.425Z,6.30
2018-06-18T01:20:38.632Z,4.30
2018-06-18T01:24:20.266Z,4.53
2018-06-18T01:26:48.490Z,3.90
2018-06-18T01:29:16.676Z,4.50
2018-06-18T01:31:44.903Z,3.93
2018-06-18T01:34:17.295Z,4.97
2018-06-18T01:36:45.508Z,4.70
2018-06-18T01:39:13.701Z,4.87
2018-06-18T01:41:41.901Z,4.50
2018-06-18T01:44:09.839Z,4.00
2018-06-18T01:46:38.044Z,5.03
2018-06-18T01:49:06.279Z,3.63
2018-06-18T01:51:34.475Z,4.40
2018-06-18T01:54:02.675Z,4.93
2018-06-18T01:56:30.883Z,4.80
2018-06-18T01:58:59.088Z,4.17
2018-06-18T02:01:27.320Z,5.97
2018-06-18T02:03:55.548Z,5.00
2018-06-18T02:06:23.784Z,4.00
2018-06-18T02:08:52.004Z,3.73
2018-06-18T02:11:20.215Z,6.80
2018-06-18T02:13:48.399Z,8.33
2018-06-18T02:16:16.397Z,4.53
2018-06-18T02:18:44.552Z,5.80
2018-06-18T02:21:12.768Z,5.20
2018-06-18T02:23:40.983Z,4.93
2018-06-18T02:26:10.005Z,4.17
2018-06-18T02:28:43.408Z,3.33
2018-06-18T02:31:17.095Z,4.20
2018-06-18T02:33:50.828Z,5.67
2018-06-18T02:36:24.319Z,6.27
2018-06-18T02:38:57.941Z,4.30
2018-06-18T02:41:26.145Z,4.73
2018-06-18T02:43:54.349Z,5.97
2018-06-18T02:46:22.685Z,4.97
2018-06-18T02:48:50.896Z,5.80
2018-06-18T02:51:19.104Z,4.23
2018-06-18T02:53:47.380Z,7.10
2018-06-18T02:56:15.903Z,5.47
2018-06-18T02:58:44.108Z,5.07
2018-06-18T03:01:12.318Z,6.53
2018-06-18T03:03:40.258Z,7.20
2018-06-18T03:06:08.457Z,7.30
2018-06-18T03:08:36.665Z,5.03
2018-06-18T03:11:04.904Z,4.17
2018-06-18T03:13:33.105Z,5.37
2018-06-18T03:16:01.296Z,5.57
2018-06-18T03:18:35.664Z,5.87
2018-06-18T03:21:09.096Z,5.93
2018-06-18T03:23:42.612Z,5.03
2018-06-18T03:26:16.260Z,5.77
2018-06-18T03:28:49.812Z,5.83
2018-06-18T03:31:18.021Z,6.57
2018-06-18T03:33:46.268Z,4.63
2018-06-18T03:36:14.472Z,6.90
2018-06-18T03:38:42.656Z,6.80
2018-06-18T03:41:10.876Z,5.57
2018-06-18T03:43:43.169Z,4.60
2018-06-18T03:46:11.357Z,6.87
2018-06-18T03:48:39.584Z,6.73
2018-06-18T03:51:07.792Z,6.33
2018-06-18T03:53:35.983Z,6.27
2018-06-18T03:56:04.021Z,6.63
2018-06-18T03:58:32.203Z,4.70
2018-06-18T04:01:46.547Z,5.20
2018-06-18T04:04:20.365Z,5.47
2018-06-18T04:06:54.052Z,4.97
2018-06-18T04:10:27.472Z,5.23
2018-06-18T04:12:55.688Z,6.47
2018-06-18T04:15:23.892Z,6.73
2018-06-18T04:17:52.116Z,5.10
2018-06-18T04:20:20.304Z,5.20
2018-06-18T04:22:48.569Z,6.37
2018-06-18T04:25:17.001Z,6.50
2018-06-18T04:27:45.216Z,7.13
2018-06-18T04:30:13.443Z,11.80
2018-06-18T04:32:41.635Z,7.33
2018-06-18T04:35:10.955Z,9.80
2018-06-18T04:37:39.237Z,4.93
2018-06-18T04:40:07.742Z,6.47
2018-06-18T04:42:41.395Z,4.63
2018-06-18T04:45:15.097Z,7.43
2018-06-18T04:47:48.748Z,7.07
2018-06-18T04:50:22.460Z,6.40
2018-06-18T04:52:50.694Z,7.03
2018-06-18T04:55:18.909Z,7.67
2018-06-18T04:57:47.116Z,4.60
2018-06-18T05:00:32.194Z,4.90
2018-06-18T05:03:00.117Z,4.07
2018-06-18T05:05:28.362Z,4.70
2018-06-18T05:08:07.428Z,3.27
2018-06-18T05:10:35.644Z,3.47
2018-06-18T05:13:03.857Z,4.67
2018-06-18T05:15:36.652Z,2.60
2018-06-18T05:18:04.998Z,3.00
2018-06-18T05:20:33.203Z,3.83
2018-06-18T05:23:01.412Z,4.80
2018-06-18T05:25:30.821Z,3.30
2018-06-18T05:27:59.041Z,2.23
2018-06-18T05:30:29.581Z,5.30
2018-06-18T05:32:57.844Z,2.87
2018-06-18T05:35:26.859Z,2.57
2018-06-18T05:37:58.703Z,5.90
2018-06-18T05:40:26.956Z,2.97
2018-06-18T05:42:55.144Z,3.03
2018-06-18T05:45:24.048Z,3.57
2018-06-18T05:47:52.251Z,3.77
2018-06-18T05:50:20.562Z,3.73
2018-06-18T05:52:48.688Z,4.20
2018-06-18T05:55:16.904Z,3.17
2018-06-18T05:57:45.157Z,3.90
2018-06-18T06:00:13.356Z,3.70
2018-06-18T06:02:41.688Z,4.57
2018-06-18T06:05:09.939Z,2.47
2018-06-18T06:07:38.128Z,3.87
2018-06-18T06:10:06.340Z,3.97
2018-06-18T06:12:34.564Z,3.90
2018-06-18T06:15:02.877Z,4.17
2018-06-18T06:17:31.071Z,3.67
2018-06-18T06:19:59.297Z,3.20
2018-06-18T06:22:27.682Z,3.37
2018-06-18T06:24:55.619Z,4.13
2018-06-18T06:27:23.813Z,3.13
2018-06-18T06:29:52.095Z,4.43
2018-06-18T06:32:20.044Z,5.07
2018-06-18T06:34:52.649Z,3.83
2018-06-18T06:37:20.872Z,3.17
2018-06-18T06:39:49.063Z,7.90
2018-06-18T06:42:18.515Z,3.87
2018-06-18T06:44:46.896Z,3.43
2018-06-18T06:47:15.415Z,5.00
2018-06-18T06:49:43.909Z,4.17
2018-06-18T06:52:12.192Z,3.97
2018-06-18T06:54:40.210Z,2.50
2018-06-18T06:57:08.412Z,3.97
2018-06-18T06:59:36.596Z,4.77
2018-06-18T07:02:04.808Z,2.43
2018-06-18T07:04:33.041Z,4.17
2018-06-18T07:07:01.068Z,5.30
2018-06-18T07:09:29.312Z,2.63
2018-06-18T07:11:57.499Z,5.03
2018-06-18T07:14:25.693Z,4.37
2018-06-18T07:16:53.907Z,3.30
2018-06-18T07:19:22.091Z,2.60
2018-06-18T07:21:50.293Z,6.33
2018-06-18T07:24:18.489Z,5.07
2018-06-18T07:26:46.700Z,2.10
2018-06-18T07:29:14.893Z,2.67
2018-06-18T07:31:43.119Z,4.10
2018-06-18T07:34:11.333Z,5.63
2018-06-18T07:36:39.560Z,2.17
2018-06-18T07:39:08.128Z,3.70
2018-06-18T07:41:36.329Z,2.83
2018-06-18T07:44:04.545Z,2.97
2018-06-18T07:46:32.768Z,4.30
2018-06-18T07:49:00.952Z,4.37
2018-06-18T07:51:29.210Z,4.27
2018-06-18T07:53:57.358Z,2.97
2018-06-18T07:56:25.747Z,5.97
2018-06-18T07:58:53.948Z,4.40
2018-06-18T08:01:22.145Z,2.60
2018-06-18T08:03:50.344Z,3.90
2018-06-18T08:06:18.540Z,3.70
2018-06-18T08:08:47.641Z,7.67
2018-06-18T08:11:15.826Z,5.27
2018-06-18T08:13:44.116Z,3.57
2018-06-18T08:16:12.301Z,3.03
2018-06-18T08:18:40.498Z,6.90
2018-06-18T08:21:08.696Z,2.93
2018-06-18T08:23:36.925Z,4.13
2018-06-18T08:26:05.166Z,2.60
2018-06-18T08:28:33.460Z,4.77
2018-06-18T08:31:01.692Z,4.57
2018-06-18T08:33:29.909Z,2.70
2018-06-18T08:35:58.124Z,3.80
2018-06-18T08:38:26.427Z,5.47
2018-06-18T08:40:54.704Z,3.60
2018-06-18T08:43:23.974Z,4.57
2018-06-18T08:45:52.168Z,6.20
2018-06-18T08:48:25.976Z,3.67
2018-06-18T08:50:59.596Z,5.87
2018-06-18T08:53:33.092Z,3.70
2018-06-18T08:56:06.730Z,2.83
2018-06-18T08:58:40.268Z,3.80
2018-06-18T09:01:13.692Z,2.63
2018-06-18T09:03:47.507Z,4.70
2018-06-18T09:06:15.733Z,4.30
2018-06-18T09:08:49.735Z,3.00
2018-06-18T09:11:19.189Z,3.13
2018-06-18T09:13:47.381Z,4.30
2018-06-18T09:16:15.593Z,2.07
2018-06-18T09:18:43.815Z,3.73
2018-06-18T09:21:12.036Z,4.27
2018-06-18T09:23:40.231Z,3.07
2018-06-18T09:26:08.408Z,3.53
2018-06-18T09:28:36.632Z,5.00
2018-06-18T09:31:04.843Z,1.90
2018-06-18T09:33:33.093Z,3.70
2018-06-18T09:36:01.284Z,3.97
2018-06-18T09:38:29.520Z,2.57
2018-06-18T09:40:57.704Z,8.47
2018-06-18T09:43:25.924Z,2.50
2018-06-18T09:45:54.128Z,5.30
2018-06-18T09:48:26.580Z,5.27
2018-06-18T09:51:00.226Z,3.97
2018-06-18T09:53:33.934Z,3.67
2018-06-18T09:56:07.356Z,4.00
2018-06-18T09:58:40.964Z,2.13
2018-06-18T10:01:16.064Z,3.70
2018-06-18T10:03:44.400Z,5.90
2018-06-18T10:06:12.895Z,2.10
2018-06-18T10:08:41.146Z,3.27
2018-06-18T10:11:09.310Z,3.73
2018-06-18T10:13:37.496Z,1.90
2018-06-18T10:16:06.111Z,3.50
2018-06-18T10:18:34.309Z,4.77
2018-06-18T10:21:02.531Z,4.53
2018-06-18T10:23:30.737Z,3.00
2018-06-18T10:25:58.944Z,2.37
2018-06-18T10:28:27.157Z,3.80
2018-06-18T10:30:55.363Z,6.57
2018-06-18T10:33:28.736Z,4.30
2018-06-18T10:36:02.405Z,5.23
2018-06-18T10:38:36.040Z,2.63
2018-06-18T10:41:09.548Z,4.60
2018-06-18T10:43:38.305Z,3.70
2018-06-18T10:46:06.504Z,3.07
2018-06-18T10:48:34.696Z,3.17
2018-06-18T10:51:02.899Z,3.70
2018-06-18T10:53:31.109Z,3.90
2018-06-18T10:55:59.328Z,2.33
2018-06-18T10:58:27.276Z,5.43
2018-06-18T11:01:02.428Z,3.57
2018-06-18T11:03:30.663Z,3.80
2018-06-18T11:06:04.227Z,2.60
2018-06-18T11:08:32.544Z,3.23
2018-06-18T11:11:00.767Z,2.20
2018-06-18T11:13:28.967Z,3.97
2018-06-18T11:15:57.308Z,5.90
2018-06-18T11:18:30.840Z,2.83
2018-06-18T11:21:04.591Z,3.77
2018-06-18T11:23:38.156Z,4.30
2018-06-18T11:26:11.836Z,3.33
2018-06-18T11:28:40.081Z,3.47
2018-06-18T11:31:08.266Z,5.23
2018-06-18T11:33:36.207Z,3.17
2018-06-18T11:36:04.452Z,3.93
2018-06-18T11:38:32.657Z,3.47
2018-06-18T11:41:01.007Z,4.07
2018-06-18T11:43:29.238Z,3.80
2018-06-18T11:45:57.516Z,2.33
2018-06-18T11:48:25.685Z,4.37
2018-06-18T11:50:53.900Z,5.00
2018-06-18T11:53:22.131Z,4.33
2018-06-18T11:55:50.768Z,2.93
2018-06-18T11:58:24.067Z,3.77
2018-06-18T12:00:57.721Z,3.80
2018-06-18T12:03:31.276Z,1.63
2018-06-18T12:06:04.804Z,2.40
2018-06-18T12:08:38.401Z,5.33
2018-06-18T12:11:06.348Z,4.63
2018-06-18T12:13:34.540Z,2.20
2018-06-18T12:16:02.802Z,3.60
2018-06-18T12:18:31.000Z,3.83
2018-06-18T12:20:59.268Z,2.73
2018-06-18T12:23:27.456Z,4.13
2018-06-18T12:25:55.648Z,2.83
2018-06-18T12:28:23.864Z,2.60
2018-06-18T12:30:52.091Z,3.93
2018-06-18T12:33:20.300Z,3.23
2018-06-18T12:35:48.516Z,5.03
2018-06-18T12:38:16.755Z,5.53
2018-06-18T12:40:45.021Z,5.27
2018-06-18T12:43:14.298Z,2.27
2018-06-18T12:45:48.669Z,5.83
2018-06-18T12:48:22.420Z,4.97
2018-06-18T12:50:56.204Z,2.97
2018-06-18T12:53:29.593Z,2.07
2018-06-18T12:56:03.202Z,3.70
2018-06-18T12:58:31.420Z,3.33
2018-06-18T13:01:00.410Z,4.47
2018-06-18T13:03:28.658Z,3.37
2018-06-18T13:05:56.830Z,4.13
2018-06-18T13:08:25.026Z,3.57
2018-06-18T13:10:53.223Z,1.97
2018-06-18T13:13:21.432Z,4.60
2018-06-18T13:15:49.640Z,4.60
2018-06-18T13:18:17.859Z,3.33
2018-06-18T13:20:46.056Z,3.53
2018-06-18T13:23:14.280Z,2.97
2018-06-18T13:25:42.477Z,3.27
2018-06-18T13:28:16.700Z,2.57
2018-06-18T13:30:45.518Z,4.23
2018-06-18T13:33:13.809Z,2.57
2018-06-18T13:35:42.089Z,2.93
2018-06-18T13:38:15.814Z,3.03
2018-06-18T13:40:49.568Z,3.87
2018-06-18T13:44:25.183Z,2.07
2018-06-18T13:46:58.876Z,3.03
2018-06-18T13:49:32.492Z,5.50
2018-06-18T13:52:00.708Z,4.30
2018-06-18T13:54:28.924Z,2.17
2018-06-18T13:56:57.144Z,2.63
2018-06-18T13:59:25.331Z,4.90
2018-06-18T14:01:53.541Z,1.77
2018-06-18T14:04:21.752Z,2.93
2018-06-18T14:06:49.957Z,3.33
2018-06-18T14:09:18.176Z,4.93
2018-06-18T14:11:46.385Z,3.70
2018-06-18T14:14:14.609Z,4.77
2018-06-18T14:16:42.823Z,3.17
2018-06-18T14:19:16.401Z,2.53
2018-06-18T14:21:44.592Z,5.17
2018-06-18T14:24:12.792Z,2.70
2018-06-18T14:26:40.975Z,4.87
2018-06-18T14:29:13.416Z,6.03
2018-06-18T14:31:47.051Z,2.37
2018-06-18T14:35:22.172Z,3.33
2018-06-18T14:37:56.356Z,5.13
2018-06-18T14:40:24.598Z,3.33
2018-06-18T14:42:52.794Z,3.10
2018-06-18T14:45:21.005Z,5.93
2018-06-18T14:47:49.226Z,1.63
2018-06-18T14:50:17.472Z,4.70
2018-06-18T14:52:45.689Z,3.77
2018-06-18T14:55:14.669Z,3.40
2018-06-18T14:57:43.308Z,2.80
2018-06-18T15:00:15.739Z,2.67
2018-06-18T15:02:43.987Z,2.77
2018-06-18T15:05:12.153Z,2.03
2018-06-18T15:07:40.499Z,3.02
2018-06-18T15:10:08.695Z,3.10
2018-06-18T15:12:43.447Z,2.70
2018-06-18T15:15:17.171Z,3.70
2018-06-18T15:17:45.456Z,2.20
2018-06-18T15:20:13.644Z,3.52
2018-06-18T15:22:44.757Z,1.60
2018-06-18T15:25:14.833Z,3.17
2018-06-18T15:27:43.020Z,5.97
2018-06-18T15:30:11.476Z,3.97
2018-06-18T15:32:39.705Z,2.47
2018-06-18T15:35:07.928Z,3.67
2018-06-18T15:37:36.140Z,4.90
2018-06-18T15:40:04.405Z,3.20
2018-06-18T15:42:32.625Z,3.50
2018-06-18T15:45:00.856Z,2.77
2018-06-18T15:47:29.119Z,2.60
2018-06-18T15:49:57.327Z,3.70
2018-06-18T15:52:25.620Z,3.43
2018-06-18T15:54:54.072Z,2.77
2018-06-18T15:57:22.281Z,4.73
2018-06-18T15:59:50.488Z,2.60
2018-06-18T16:02:18.774Z,2.57
2018-06-18T16:04:46.904Z,3.47
2018-06-18T16:07:15.108Z,1.90
2018-06-18T16:09:43.300Z,3.37
2018-06-18T16:12:11.517Z,4.63
2018-06-18T16:14:39.703Z,2.53
2018-06-18T16:17:07.972Z,2.53
2018-06-18T16:19:36.305Z,3.27
2018-06-18T16:22:04.508Z,3.50
2018-06-18T16:24:32.835Z,2.20
2018-06-18T16:27:01.012Z,5.37
2018-06-18T16:29:29.235Z,4.63
2018-06-18T16:31:57.429Z,3.07
2018-06-18T16:34:25.684Z,2.23
2018-06-18T16:36:53.890Z,3.17
2018-06-18T16:39:22.076Z,2.97
2018-06-18T16:41:50.333Z,2.23
2018-06-18T16:44:18.539Z,4.03
2018-06-18T16:46:46.760Z,2.83
2018-06-18T16:49:14.971Z,4.23
2018-06-18T16:51:43.199Z,2.27
2018-06-18T16:54:11.376Z,3.10
2018-06-18T16:56:39.585Z,2.73
2018-06-18T16:59:07.815Z,2.83
2018-06-18T17:01:36.036Z,2.63
2018-06-18T17:04:04.245Z,4.17
2018-06-18T17:06:32.544Z,1.93
2018-06-18T17:09:00.772Z,2.67
2018-06-18T17:11:28.964Z,3.10
2018-06-18T17:13:57.193Z,3.97
2018-06-18T17:16:25.465Z,2.43
2018-06-18T17:18:53.672Z,1.42
2018-06-18T17:21:21.884Z,3.75
2018-06-18T17:23:50.463Z,4.20
2018-06-18T17:26:18.657Z,5.25
2018-06-18T17:28:46.848Z,3.22
2018-06-18T17:31:15.049Z,4.55
2018-06-18T17:33:43.260Z,3.42
2018-06-18T17:36:11.469Z,2.95
2018-06-18T17:38:39.703Z,3.12
2018-06-18T17:41:07.920Z,3.55
2018-06-18T17:43:36.148Z,3.75
2018-06-18T17:46:04.396Z,3.67
2018-06-18T17:48:32.608Z,2.45
2018-06-18T17:51:00.936Z,3.17
2018-06-18T17:53:29.883Z,2.75
2018-06-18T17:55:58.112Z,3.10
2018-06-18T17:58:26.376Z,2.80
2018-06-18T18:00:54.580Z,2.90
2018-06-18T18:03:22.778Z,1.75
2018-06-18T18:05:51.036Z,1.90
2018-06-18T18:08:19.228Z,3.10
2018-06-18T18:10:47.436Z,2.87
2018-06-18T18:13:15.771Z,1.60
2018-06-18T18:15:43.891Z,2.17
2018-06-18T18:18:12.197Z,2.15
2018-06-18T18:20:40.407Z,3.15
2018-06-18T18:23:08.652Z,2.47
2018-06-18T18:25:36.854Z,2.63
2018-06-18T18:28:05.384Z,1.77
2018-06-18T18:30:33.603Z,2.73
2018-06-18T18:33:01.820Z,2.27
2018-06-18T18:35:30.052Z,4.70
2018-06-18T18:37:58.280Z,3.23
2018-06-18T18:40:26.489Z,1.60
2018-06-18T18:42:54.713Z,3.47
2018-06-18T18:45:23.505Z,3.83
2018-06-18T18:47:51.668Z,3.03
2018-06-18T18:50:19.856Z,2.70
2018-06-18T18:52:48.068Z,2.83
2018-06-18T18:55:37.976Z,4.83
2018-06-18T18:58:18.977Z,4.47
2018-06-18T19:00:47.977Z,2.83
2018-06-18T19:03:17.938Z,2.83
2018-06-18T19:05:46.903Z,3.77
2018-06-18T19:08:17.833Z,4.33
2018-06-18T19:10:46.392Z,2.90
2018-06-18T19:13:18.949Z,5.87
2018-06-18T19:15:48.256Z,2.70
2018-06-18T19:18:16.487Z,2.10
2018-06-18T19:20:49.212Z,2.10
2018-06-18T19:23:17.439Z,2.27
2018-06-18T19:25:45.642Z,3.57
2018-06-18T19:28:13.865Z,2.97
2018-06-18T19:30:44.544Z,3.80
2018-06-18T19:33:15.560Z,5.07
2018-06-18T19:35:43.796Z,3.80
2018-06-18T19:38:12.264Z,3.13
2018-06-18T19:40:40.524Z,5.23
2018-06-18T19:43:08.725Z,4.50
2018-06-18T19:45:40.188Z,3.17
2018-06-18T19:48:11.846Z,3.73
2018-06-18T19:50:40.117Z,2.57
2018-06-18T19:53:08.313Z,4.27
2018-06-18T19:55:36.520Z,4.37
2018-06-18T19:58:04.813Z,2.83
2018-06-18T20:00:36.712Z,3.00
2018-06-18T20:03:04.914Z,2.80
2018-06-18T20:05:32.883Z,3.20
2018-06-18T20:08:04.433Z,4.57
2018-06-18T20:10:32.604Z,2.90
2018-06-18T20:13:00.945Z,3.77
2018-06-18T20:15:29.112Z,3.10
2018-06-18T20:17:57.336Z,5.57
2018-06-18T20:20:25.557Z,5.73
2018-06-18T20:22:53.807Z,5.23
2018-06-18T20:25:29.405Z,10.20
2018-06-18T20:27:57.592Z,4.50
2018-06-18T20:30:25.816Z,4.83
2018-06-18T20:32:54.040Z,3.40
2018-06-18T20:35:25.773Z,6.67
2018-06-18T20:37:54.791Z,6.50
2018-06-18T20:40:23.039Z,17.23
2018-06-18T20:42:51.572Z,7.67
2018-06-18T20:45:19.767Z,5.43
2018-06-18T20:47:47.990Z,6.10
2018-06-18T20:50:16.225Z,6.50
2018-06-18T20:52:44.783Z,5.07
2018-06-18T20:55:12.976Z,4.87
2018-06-18T20:57:41.219Z,6.97
2018-06-18T21:00:09.435Z,6.20
2018-06-18T21:02:37.664Z,5.83
2018-06-18T21:05:05.916Z,6.67
2018-06-18T21:07:34.427Z,6.77
2018-06-18T21:10:02.727Z,5.50
2018-06-18T21:12:30.976Z,6.37
2018-06-18T21:14:59.981Z,6.17
2018-06-18T21:17:28.196Z,5.47
2018-06-18T21:19:56.436Z,5.23
2018-06-18T21:22:24.706Z,5.97
2018-06-18T21:24:52.928Z,6.40
2018-06-18T21:27:21.136Z,6.03
2018-06-18T21:29:49.356Z,5.67
2018-06-18T21:32:17.537Z,7.67
2018-06-18T21:34:45.784Z,5.77
2018-06-18T21:37:13.971Z,7.00
2018-06-18T21:39:42.171Z,7.47
2018-06-18T21:42:10.417Z,6.87
2018-06-18T21:44:45.656Z,7.27
2018-06-18T21:47:14.625Z,8.10
2018-06-18T21:49:42.848Z,7.47
2018-06-18T21:52:11.068Z,8.27
2018-06-18T21:54:39.269Z,6.80
2018-06-18T21:57:07.455Z,9.93
2018-06-18T21:59:35.685Z,6.97
2018-06-18T22:02:03.620Z,8.77
2018-06-18T22:04:31.836Z,7.33
2018-06-18T22:07:00.070Z,7.50
2018-06-18T22:09:28.257Z,7.90
2018-06-18T22:11:56.521Z,5.87
2018-06-18T22:14:25.079Z,9.57
2018-06-18T22:16:53.341Z,11.70
2018-06-18T22:19:21.548Z,9.73
2018-06-18T22:21:49.737Z,7.00
2018-06-18T22:24:17.988Z,8.03
2018-06-18T22:26:46.180Z,7.87
2018-06-18T22:29:15.400Z,10.33
2018-06-18T22:31:43.621Z,6.63
2018-06-18T22:34:11.860Z,9.37
2018-06-18T22:36:40.066Z,8.43
2018-06-18T22:39:09.816Z,7.17
2018-06-18T22:41:38.020Z,12.20
2018-06-18T22:44:06.848Z,9.07
2018-06-18T22:46:35.080Z,8.37
2018-06-18T22:49:03.281Z,9.50
2018-06-18T22:51:31.543Z,8.13
2018-06-18T22:53:59.780Z,8.17
2018-06-18T22:56:27.969Z,11.27
2018-06-18T22:58:56.204Z,7.80
2018-06-18T23:01:24.430Z,7.27
2018-06-18T23:03:52.660Z,8.97
2018-06-18T23:06:21.139Z,9.60
2018-06-18T23:08:49.363Z,6.80
2018-06-18T23:11:17.580Z,9.90
2018-06-18T23:13:45.819Z,8.83
2018-06-18T23:16:14.016Z,12.30
2018-06-18T23:18:42.248Z,9.77
2018-06-18T23:21:10.483Z,9.70
2018-06-18T23:23:38.675Z,9.73
2018-06-18T23:26:06.897Z,11.43
2018-06-18T23:28:40.204Z,7.30
2018-06-18T23:31:08.423Z,16.40
2018-06-18T23:33:36.624Z,12.53
2018-06-18T23:36:04.920Z,9.47
2018-06-18T23:38:33.139Z,12.73
2018-06-18T23:41:01.387Z,12.03
2018-06-18T23:43:29.568Z,11.23
2018-06-18T23:45:58.135Z,11.20
2018-06-18T23:48:26.336Z,9.07
2018-06-18T23:50:54.565Z,10.60
2018-06-18T23:53:22.780Z,8.00
2018-06-18T23:55:50.984Z,8.93
2018-06-18T23:58:19.200Z,12.20
